Time;durP1;ratioP1;P1;durP2;ratioP2;P2;SDS_P1;SDS_P2;PMS_P1;PMS_P2;Temp;Humidity;BMP_temperature;BMP_pressure;BME280_temperature;BME280_humidity;BME280_pressure;Samples;Min_cycle;Max_cycle;Signal;HPM_P1;HPM_P2
2021/03/26 00:02:16;;;;;;;0.10;0.10;;;;;;;;;;5099086;28;20207;-68
2021/03/26 00:04:42;;;;;;;0.10;0.10;;;;;;;;;;5091932;28;20425;-68
2021/03/26 00:07:09;;;;;;;0.10;0.10;;;;;;;;;;5083897;28;20290;-69
2021/03/26 00:09:36;;;;;;;0.10;0.10;;;;;;;;;;5103579;28;20209;-69
2021/03/26 00:12:05;;;;;;;0.10;0.10;;;;;;;;;;5102650;28;20273;-69
2021/03/26 00:14:31;;;;;;;0.10;0.10;;;;;;;;;;5091118;28;20216;-68
2021/03/26 00:16:56;;;;;;;0.10;0.10;;;;;;;;;;5103849;28;20202;-68
2021/03/26 00:19:22;;;;;;;0.10;0.10;;;;;;;;;;5103996;28;20207;-68
2021/03/26 00:21:48;;;;;;;0.10;0.10;;;;;;;;;;5104042;28;20221;-69
2021/03/26 00:24:14;;;;;;;0.10;0.10;;;;;;;;;;5102958;28;20202;-69
2021/03/26 00:26:40;;;;;;;0.10;0.10;;;;;;;;;;5104169;28;20264;-68
2021/03/26 00:29:11;;;;;;;0.10;0.10;;;;;;;;;;5104053;28;20205;-69
2021/03/26 00:31:37;;;;;;;0.10;0.10;;;;;;;;;;5103878;28;20199;-68
2021/03/26 00:34:02;;;;;;;0.10;0.10;;;;;;;;;;5103322;28;20536;-69
2021/03/26 00:36:31;;;;;;;0.10;0.10;;;;;;;;;;5103687;28;20272;-68
2021/03/26 00:38:57;;;;;;;0.10;0.10;;;;;;;;;;5103241;28;20210;-68
2021/03/26 00:41:23;;;;;;;0.10;0.10;;;;;;;;;;5097683;28;20504;-69
2021/03/26 00:43:49;;;;;;;0.10;0.10;;;;;;;;;;5092728;28;20248;-70
2021/03/26 00:46:15;;;;;;;0.20;0.20;;;;;;;;;;5096399;28;20498;-69
2021/03/26 00:48:40;;;;;;;0.10;0.10;;;;;;;;;;5103562;28;20382;-70
2021/03/26 00:51:06;;;;;;;0.10;0.10;;;;;;;;;;5103781;28;20537;-69
2021/03/26 00:53:33;;;;;;;0.10;0.10;;;;;;;;;;5103530;28;20210;-69
2021/03/26 00:55:59;;;;;;;0.10;0.10;;;;;;;;;;5103329;28;20211;-69
2021/03/26 00:58:26;;;;;;;0.10;0.10;;;;;;;;;;5103124;28;20206;-69
2021/03/26 01:00:52;;;;;;;0.10;0.10;;;;;;;;;;5103527;28;20394;-69
2021/03/26 01:03:19;;;;;;;0.10;0.10;;;;;;;;;;5090820;28;20385;-68
2021/03/26 01:05:47;;;;;;;0.10;0.10;;;;;;;;;;5098183;28;20572;-68
2021/03/26 01:08:13;;;;;;;0.10;0.10;;;;;;;;;;5103177;28;20214;-69
2021/03/26 01:10:39;;;;;;;1.50;1.50;;;;;;;;;;5099487;28;20300;-69
2021/03/26 01:13:06;;;;;;;0.10;0.10;;;;;;;;;;5100677;28;20522;-69
2021/03/26 01:15:33;;;;;;;0.27;0.27;;;;;;;;;;5104592;28;20201;-68
2021/03/26 01:18:00;;;;;;;0.10;0.10;;;;;;;;;;5106694;28;20377;-70
2021/03/26 01:20:28;;;;;;;0.10;0.10;;;;;;;;;;5105709;28;20230;-68
2021/03/26 01:22:54;;;;;;;0.10;0.10;;;;;;;;;;5088268;28;20376;-68
2021/03/26 01:25:22;;;;;;;0.30;0.30;;;;;;;;;;5102493;28;20227;-69
2021/03/26 01:27:47;;;;;;;0.10;0.10;;;;;;;;;;5101616;28;20209;-68
2021/03/26 01:30:15;;;;;;;0.10;0.10;;;;;;;;;;5102296;28;20497;-68
2021/03/26 01:32:42;;;;;;;0.10;0.10;;;;;;;;;;5093829;28;20203;-69
2021/03/26 01:35:10;;;;;;;0.10;0.10;;;;;;;;;;5094907;28;20213;-69
2021/03/26 01:37:36;;;;;;;0.10;0.10;;;;;;;;;;5098049;28;20472;-68
2021/03/26 01:40:03;;;;;;;0.10;0.10;;;;;;;;;;5102773;28;20340;-68
2021/03/26 01:42:30;;;;;;;0.10;0.10;;;;;;;;;;5101885;28;20394;-69
2021/03/26 01:44:57;;;;;;;5.30;5.00;;;;;;;;;;5099333;28;20280;-68
2021/03/26 01:47:22;;;;;;;0.10;0.10;;;;;;;;;;5094261;28;20257;-69
2021/03/26 01:49:49;;;;;;;0.10;0.10;;;;;;;;;;5100853;28;20197;-68
2021/03/26 01:52:15;;;;;;;0.10;0.10;;;;;;;;;;5096920;28;20211;-69
2021/03/26 01:54:41;;;;;;;0.60;0.60;;;;;;;;;;5106409;28;20250;-68
2021/03/26 01:57:07;;;;;;;0.10;0.10;;;;;;;;;;5098313;28;20201;-68
2021/03/26 01:59:33;;;;;;;0.70;0.70;;;;;;;;;;5102936;28;20205;-70
2021/03/26 02:02:02;;;;;;;0.10;0.10;;;;;;;;;;5096947;28;20204;-70
2021/03/26 02:04:31;;;;;;;0.10;0.10;;;;;;;;;;5097306;28;20418;-69
2021/03/26 02:06:57;;;;;;;4.00;3.80;;;;;;;;;;5092433;28;20203;-68
2021/03/26 02:09:24;;;;;;;0.10;0.10;;;;;;;;;;5096893;28;20214;-69
2021/03/26 02:11:52;;;;;;;0.20;0.20;;;;;;;;;;5090943;28;20209;-69
2021/03/26 02:14:19;;;;;;;0.10;0.10;;;;;;;;;;5106406;28;20314;-69
2021/03/26 02:16:45;;;;;;;0.10;0.10;;;;;;;;;;5106260;28;20203;-70
2021/03/26 02:19:14;;;;;;;0.30;0.30;;;;;;;;;;5104174;28;20436;-69
2021/03/26 02:21:40;;;;;;;0.10;0.10;;;;;;;;;;5104516;28;20239;-68
2021/03/26 02:24:07;;;;;;;0.10;0.10;;;;;;;;;;5104724;28;20220;-70
2021/03/26 02:26:35;;;;;;;0.10;0.10;;;;;;;;;;5097411;28;20247;-69
2021/03/26 02:29:02;;;;;;;0.10;0.10;;;;;;;;;;5105405;28;20224;-68
2021/03/26 02:31:28;;;;;;;0.10;0.10;;;;;;;;;;5106568;28;20479;-69
2021/03/26 02:33:54;;;;;;;0.10;0.10;;;;;;;;;;5103391;28;20231;-68
2021/03/26 02:36:41;;;;;;;0.10;0.10;;;;;;;;;;5090058;28;20207;-68
2021/03/26 02:39:12;;;;;;;0.10;0.10;;;;;;;;;;5094107;28;20210;-68
2021/03/26 02:41:39;;;;;;;0.10;0.10;;;;;;;;;;5105499;28;20228;-69
2021/03/26 02:44:14;;;;;;;0.10;0.10;;;;;;;;;;5096822;28;20492;-71
2021/03/26 02:46:42;;;;;;;0.10;0.10;;;;;;;;;;5097613;28;20265;-69
2021/03/26 02:49:10;;;;;;;0.10;0.10;;;;;;;;;;5105656;28;20386;-69
2021/03/26 02:51:37;;;;;;;0.10;0.10;;;;;;;;;;5094797;28;20202;-69
2021/03/26 02:54:07;;;;;;;0.10;0.10;;;;;;;;;;5091418;28;20218;-68
2021/03/26 02:56:36;;;;;;;0.10;0.10;;;;;;;;;;5104940;28;20213;-69
2021/03/26 02:59:05;;;;;;;0.10;0.10;;;;;;;;;;5105805;28;20249;-68
2021/03/26 03:01:33;;;;;;;0.10;0.10;;;;;;;;;;5092232;28;20546;-68
2021/03/26 03:04:01;;;;;;;0.10;0.10;;;;;;;;;;5105308;28;20231;-69
2021/03/26 03:06:31;;;;;;;5.63;5.40;;;;;;;;;;5090103;28;20481;-69
2021/03/26 03:08:58;;;;;;;0.10;0.10;;;;;;;;;;5100293;28;20192;-68
2021/03/26 03:11:27;;;;;;;0.10;0.10;;;;;;;;;;5101195;28;20211;-69
2021/03/26 03:13:55;;;;;;;0.10;0.10;;;;;;;;;;5101128;28;20208;-68
2021/03/26 03:16:22;;;;;;;0.10;0.10;;;;;;;;;;5105036;28;20316;-69
2021/03/26 03:18:52;;;;;;;0.10;0.10;;;;;;;;;;5103646;28;20202;-70
2021/03/26 03:21:21;;;;;;;0.10;0.10;;;;;;;;;;5105143;28;20231;-68
2021/03/26 03:23:51;;;;;;;0.10;0.10;;;;;;;;;;5101814;28;20553;-68
2021/03/26 03:26:19;;;;;;;0.10;0.10;;;;;;;;;;5095729;28;20431;-68
2021/03/26 03:28:50;;;;;;;0.10;0.10;;;;;;;;;;5093462;28;20201;-68
2021/03/26 03:31:22;;;;;;;0.10;0.10;;;;;;;;;;5104815;28;20200;-68
2021/03/26 03:33:51;;;;;;;0.17;0.17;;;;;;;;;;5090957;28;20519;-70
2021/03/26 03:36:19;;;;;;;0.10;0.10;;;;;;;;;;5104774;28;20205;-68
2021/03/26 03:38:56;;;;;;;0.10;0.10;;;;;;;;;;5097682;28;20221;-69
2021/03/26 03:41:25;;;;;;;0.10;0.10;;;;;;;;;;5093861;28;20256;-69
2021/03/26 03:43:55;;;;;;;0.20;0.20;;;;;;;;;;5093139;28;20218;-69
2021/03/26 03:46:25;;;;;;;0.30;0.30;;;;;;;;;;5091551;28;20202;-69
2021/03/26 03:48:54;;;;;;;0.10;0.10;;;;;;;;;;5095635;28;20530;-70
2021/03/26 03:51:23;;;;;;;0.10;0.10;;;;;;;;;;5100141;28;20202;-69
2021/03/26 03:53:52;;;;;;;0.10;0.10;;;;;;;;;;5099119;28;20387;-69
2021/03/26 03:56:23;;;;;;;0.20;0.20;;;;;;;;;;5093169;28;20400;-69
2021/03/26 03:58:52;;;;;;;0.10;0.10;;;;;;;;;;5097476;28;20208;-68
2021/03/26 04:01:21;;;;;;;0.10;0.10;;;;;;;;;;5095486;28;20221;-69
2021/03/26 04:03:50;;;;;;;0.10;0.10;;;;;;;;;;5097437;28;20282;-69
2021/03/26 04:06:17;;;;;;;0.10;0.10;;;;;;;;;;5099551;28;20483;-70
2021/03/26 04:08:44;;;;;;;0.10;0.10;;;;;;;;;;5095157;28;20377;-68
2021/03/26 04:11:13;;;;;;;0.10;0.10;;;;;;;;;;5094411;28;20488;-68
2021/03/26 04:13:41;;;;;;;0.10;0.10;;;;;;;;;;5095999;28;20201;-68
2021/03/26 04:16:08;;;;;;;0.10;0.10;;;;;;;;;;5093454;28;20254;-68
2021/03/26 04:18:36;;;;;;;0.73;0.73;;;;;;;;;;5100589;28;20388;-69
2021/03/26 04:21:04;;;;;;;0.10;0.10;;;;;;;;;;5103948;28;20242;-68
2021/03/26 04:23:32;;;;;;;0.10;0.10;;;;;;;;;;5091866;28;20211;-68
2021/03/26 04:26:08;;;;;;;0.10;0.10;;;;;;;;;;5103365;28;20200;-68
2021/03/26 04:28:36;;;;;;;0.10;0.10;;;;;;;;;;5093159;28;20201;-68
2021/03/26 04:31:04;;;;;;;0.10;0.10;;;;;;;;;;5103787;28;20220;-68
2021/03/26 04:33:29;;;;;;;0.10;0.10;;;;;;;;;;5103761;28;20224;-69
2021/03/26 04:35:56;;;;;;;0.47;0.47;;;;;;;;;;5093109;28;20201;-69
2021/03/26 04:38:25;;;;;;;0.10;0.10;;;;;;;;;;5093622;28;20222;-68
2021/03/26 04:40:54;;;;;;;0.60;0.60;;;;;;;;;;5097555;28;20228;-68
2021/03/26 04:43:23;;;;;;;0.10;0.10;;;;;;;;;;5103753;28;20476;-69
2021/03/26 04:45:51;;;;;;;0.10;0.10;;;;;;;;;;5103477;28;20258;-69
2021/03/26 04:48:20;;;;;;;0.10;0.10;;;;;;;;;;5103560;28;20232;-69
2021/03/26 04:50:51;;;;;;;0.10;0.10;;;;;;;;;;5099935;28;20357;-69
2021/03/26 04:53:20;;;;;;;0.20;0.20;;;;;;;;;;5092057;28;20212;-69
2021/03/26 04:55:50;;;;;;;0.10;0.10;;;;;;;;;;5095897;28;20244;-69
2021/03/26 04:58:18;;;;;;;0.10;0.10;;;;;;;;;;5103331;28;20292;-69
2021/03/26 05:00:45;;;;;;;0.10;0.10;;;;;;;;;;5103193;28;20229;-69
2021/03/26 05:03:14;;;;;;;0.10;0.10;;;;;;;;;;5102787;28;20472;-68
2021/03/26 05:05:42;;;;;;;0.10;0.10;;;;;;;;;;5103496;28;20296;-68
2021/03/26 05:08:10;;;;;;;0.10;0.10;;;;;;;;;;5103539;28;20207;-68
2021/03/26 05:10:37;;;;;;;0.10;0.10;;;;;;;;;;5098908;28;20197;-68
2021/03/26 05:13:05;;;;;;;0.10;0.10;;;;;;;;;;5103526;28;20200;-69
2021/03/26 05:15:32;;;;;;;0.10;0.10;;;;;;;;;;5100512;28;20199;-70
2021/03/26 05:17:59;;;;;;;0.10;0.10;;;;;;;;;;5101582;28;20558;-69
2021/03/26 05:20:28;;;;;;;0.20;0.20;;;;;;;;;;5103255;28;20270;-69
2021/03/26 05:22:56;;;;;;;0.10;0.10;;;;;;;;;;5103409;28;20424;-69
2021/03/26 05:25:26;;;;;;;0.10;0.10;;;;;;;;;;5088158;28;20231;-70
2021/03/26 05:27:53;;;;;;;0.10;0.10;;;;;;;;;;5085347;28;20242;-70
2021/03/26 05:30:22;;;;;;;0.10;0.10;;;;;;;;;;5089787;28;20439;-68
2021/03/26 05:32:51;;;;;;;0.10;0.10;;;;;;;;;;5103302;28;20248;-69
2021/03/26 05:35:21;;;;;;;0.10;0.10;;;;;;;;;;5102945;28;20201;-69
2021/03/26 05:37:52;;;;;;;0.10;0.10;;;;;;;;;;5095098;28;20220;-70
2021/03/26 05:40:26;;;;;;;0.10;0.10;;;;;;;;;;5102716;28;20217;-69
2021/03/26 05:42:55;;;;;;;0.13;0.13;;;;;;;;;;5091064;28;20216;-69
2021/03/26 05:45:29;;;;;;;0.10;0.10;;;;;;;;;;5097756;28;20385;-69
2021/03/26 05:48:04;;;;;;;0.10;0.10;;;;;;;;;;5088616;28;20494;-69
2021/03/26 05:50:40;;;;;;;1.03;1.03;;;;;;;;;;5099565;28;20201;-69
2021/03/26 05:53:14;;;;;;;4.60;3.70;;;;;;;;;;5103024;28;20384;-69
2021/03/26 05:55:45;;;;;;;0.10;0.10;;;;;;;;;;5103187;28;20200;-69
2021/03/26 05:58:15;;;;;;;0.10;0.10;;;;;;;;;;5101988;28;20235;-69
2021/03/26 06:00:55;;;;;;;0.10;0.10;;;;;;;;;;5102611;28;20230;-70
2021/03/26 06:03:33;;;;;;;0.10;0.10;;;;;;;;;;5083416;28;20204;-68
2021/03/26 06:06:16;;;;;;;0.10;0.10;;;;;;;;;;5100130;28;20240;-69
2021/03/26 06:08:52;;;;;;;0.10;0.10;;;;;;;;;;5088657;28;20553;-69
2021/03/26 06:11:28;;;;;;;0.10;0.10;;;;;;;;;;5102334;28;20218;-69
2021/03/26 06:14:02;;;;;;;0.10;0.10;;;;;;;;;;5101806;28;20553;-70
2021/03/26 06:16:30;;;;;;;0.10;0.10;;;;;;;;;;5106048;28;20315;-69
2021/03/26 06:19:04;;;;;;;0.10;0.10;;;;;;;;;;5097757;28;20217;-70
2021/03/26 06:21:39;;;;;;;0.10;0.10;;;;;;;;;;5096647;28;20217;-69
2021/03/26 06:24:22;;;;;;;0.10;0.10;;;;;;;;;;5105760;28;20198;-70
2021/03/26 06:27:07;;;;;;;0.77;0.77;;;;;;;;;;5105417;28;20205;-69
2021/03/26 06:29:41;;;;;;;0.20;0.20;;;;;;;;;;5087173;28;20395;-69
2021/03/26 06:32:25;;;;;;;0.10;0.10;;;;;;;;;;5091577;28;20366;-69
2021/03/26 06:35:09;;;;;;;0.10;0.10;;;;;;;;;;5095872;28;20247;-69
2021/03/26 06:37:46;;;;;;;0.10;0.10;;;;;;;;;;5096124;28;20238;-69
2021/03/26 06:40:22;;;;;;;0.20;0.20;;;;;;;;;;5105821;28;20191;-69
2021/03/26 06:42:55;;;;;;;0.10;0.10;;;;;;;;;;5105795;28;20211;-69
2021/03/26 06:45:36;;;;;;;0.10;0.10;;;;;;;;;;5105551;28;20431;-69
2021/03/26 06:48:16;;;;;;;0.10;0.10;;;;;;;;;;5092096;28;20470;-69
2021/03/26 06:50:57;;;;;;;0.10;0.10;;;;;;;;;;5101866;28;20361;-68
2021/03/26 06:53:28;;;;;;;0.10;0.10;;;;;;;;;;5092253;28;20212;-68
2021/03/26 06:55:58;;;;;;;0.10;0.10;;;;;;;;;;5103972;28;20291;-69
2021/03/26 06:58:37;;;;;;;0.10;0.10;;;;;;;;;;5105654;28;20207;-68
2021/03/26 07:01:14;;;;;;;0.10;0.10;;;;;;;;;;5092405;28;20236;-69
2021/03/26 07:03:51;;;;;;;0.10;0.10;;;;;;;;;;5103505;28;20361;-69
2021/03/26 07:06:35;;;;;;;0.20;0.20;;;;;;;;;;5102418;28;20196;-68
2021/03/26 07:09:06;;;;;;;0.10;0.10;;;;;;;;;;5091337;28;20205;-69
2021/03/26 07:11:45;;;;;;;0.10;0.10;;;;;;;;;;5097102;28;20191;-68
2021/03/26 07:14:15;;;;;;;0.10;0.10;;;;;;;;;;5105144;28;20394;-69
2021/03/26 07:16:54;;;;;;;0.10;0.10;;;;;;;;;;5105164;28;20202;-69
2021/03/26 07:19:26;;;;;;;0.20;0.20;;;;;;;;;;5102539;28;20428;-70
2021/03/26 07:22:01;;;;;;;0.10;0.10;;;;;;;;;;5094475;28;20260;-71
2021/03/26 07:24:44;;;;;;;1.20;1.20;;;;;;;;;;5105066;28;20472;-71
2021/03/26 07:27:22;;;;;;;0.10;0.10;;;;;;;;;;5092216;28;20196;-70
2021/03/26 07:30:08;;;;;;;0.20;0.20;;;;;;;;;;5098608;28;20208;-71
2021/03/26 07:32:42;;;;;;;0.10;0.10;;;;;;;;;;5076134;28;20257;-69
2021/03/26 07:35:17;;;;;;;0.97;0.97;;;;;;;;;;5096920;28;20201;-70
2021/03/26 07:37:48;;;;;;;0.10;0.10;;;;;;;;;;5103385;28;20229;-70
2021/03/26 07:40:37;;;;;;;0.10;0.10;;;;;;;;;;5104610;28;20206;-70
2021/03/26 07:43:12;;;;;;;0.10;0.10;;;;;;;;;;5099466;28;20428;-71
2021/03/26 07:45:49;;;;;;;0.10;0.10;;;;;;;;;;5096475;28;20497;-72
2021/03/26 07:48:26;;;;;;;0.10;0.10;;;;;;;;;;5095769;28;20206;-72
2021/03/26 07:50:57;;;;;;;0.10;0.10;;;;;;;;;;5104220;28;20194;-71
2021/03/26 07:53:37;;;;;;;0.10;0.10;;;;;;;;;;5095804;28;20271;-70
2021/03/26 07:56:08;;;;;;;0.10;0.10;;;;;;;;;;5094787;28;20430;-71
2021/03/26 07:58:53;;;;;;;0.10;0.10;;;;;;;;;;5093322;28;20201;-70
2021/03/26 08:01:35;;;;;;;0.10;0.10;;;;;;;;;;5104219;28;20250;-68
2021/03/26 08:04:13;;;;;;;0.27;0.27;;;;;;;;;;5103267;28;20234;-67
2021/03/26 08:06:49;;;;;;;0.10;0.10;;;;;;;;;;5102349;28;20201;-66
2021/03/26 08:09:23;;;;;;;0.10;0.10;;;;;;;;;;5101792;28;20207;-66
2021/03/26 08:11:52;;;;;;;0.10;0.10;;;;;;;;;;5088990;28;20191;-66
2021/03/26 08:14:42;;;;;;;0.10;0.10;;;;;;;;;;5102884;28;20210;-67
2021/03/26 08:17:15;;;;;;;0.10;0.10;;;;;;;;;;5103710;28;20222;-67
2021/03/26 08:19:47;;;;;;;0.10;0.10;;;;;;;;;;5100584;28;20394;-67
2021/03/26 08:22:16;;;;;;;0.10;0.10;;;;;;;;;;5101963;28;20278;-67
2021/03/26 08:24:49;;;;;;;0.10;0.10;;;;;;;;;;5086958;28;20313;-67
2021/03/26 08:27:20;;;;;;;0.10;0.10;;;;;;;;;;5091686;28;20199;-66
2021/03/26 08:29:49;;;;;;;0.10;0.10;;;;;;;;;;5096060;28;20319;-67
2021/03/26 08:32:34;;;;;;;0.10;0.10;;;;;;;;;;5094253;28;20213;-66
2021/03/26 08:35:20;;;;;;;0.10;0.10;;;;;;;;;;5094744;28;20199;-66
2021/03/26 08:37:51;;;;;;;0.10;0.10;;;;;;;;;;5103223;28;20280;-68
2021/03/26 08:40:19;;;;;;;0.10;0.10;;;;;;;;;;5103100;28;20232;-67
2021/03/26 08:42:50;;;;;;;0.10;0.10;;;;;;;;;;5102928;28;20215;-67
2021/03/26 08:45:22;;;;;;;0.10;0.10;;;;;;;;;;5102991;28;20436;-68
2021/03/26 08:47:51;;;;;;;0.10;0.10;;;;;;;;;;5102326;28;20196;-77
2021/03/26 08:50:24;;;;;;;0.10;0.10;;;;;;;;;;5103617;28;20514;-72
2021/03/26 08:53:01;;;;;;;0.10;0.10;;;;;;;;;;5099087;28;20239;-75
2021/03/26 08:55:44;;;;;;;1.80;1.80;;;;;;;;;;5097938;28;20201;-70
2021/03/26 08:58:35;;;;;;;0.10;0.10;;;;;;;;;;5094249;28;20275;-71
2021/03/26 09:01:26;;;;;;;2.00;2.00;;;;;;;;;;5083881;28;20255;-70
2021/03/26 09:03:58;;;;;;;0.10;0.10;;;;;;;;;;5091346;28;20461;-70
2021/03/26 09:06:35;;;;;;;0.10;0.10;;;;;;;;;;5101250;28;20202;-70
2021/03/26 09:09:19;;;;;;;0.10;0.10;;;;;;;;;;5101825;28;20529;-70
2021/03/26 09:12:00;;;;;;;0.10;0.10;;;;;;;;;;5082765;28;20202;-71
2021/03/26 09:14:39;;;;;;;0.10;0.10;;;;;;;;;;5099822;28;20215;-71
2021/03/26 09:17:11;;;;;;;0.10;0.10;;;;;;;;;;5102886;28;20203;-71
2021/03/26 09:19:41;;;;;;;0.10;0.10;;;;;;;;;;5102971;28;20211;-71
2021/03/26 09:22:17;;;;;;;0.00;0.00;;;;;;;;;;5100841;28;20296;-71
2021/03/26 09:25:10;;;;;;;0.10;0.10;;;;;;;;;;5101836;28;20210;-70
2021/03/26 09:27:39;;;;;;;0.10;0.10;;;;;;;;;;5091443;28;20200;-71
2021/03/26 09:30:12;;;;;;;0.10;0.10;;;;;;;;;;5102806;28;20495;-71
2021/03/26 09:32:44;;;;;;;0.07;0.07;;;;;;;;;;5103358;28;20199;-70
2021/03/26 09:35:12;;;;;;;0.10;0.10;;;;;;;;;;5099358;28;20223;-71
2021/03/26 09:37:44;;;;;;;0.10;0.10;;;;;;;;;;5099141;28;20224;-71
2021/03/26 09:40:12;;;;;;;0.10;0.10;;;;;;;;;;5094975;28;20491;-71
2021/03/26 09:42:40;;;;;;;0.08;0.08;;;;;;;;;;5102360;28;20230;-71
2021/03/26 09:45:17;;;;;;;0.03;0.03;;;;;;;;;;5095855;28;20203;-70
2021/03/26 09:47:49;;;;;;;0.08;0.08;;;;;;;;;;5102256;28;20389;-72
2021/03/26 09:50:26;;;;;;;0.10;0.10;;;;;;;;;;5103431;28;20199;-71
2021/03/26 09:52:53;;;;;;;0.10;0.10;;;;;;;;;;5104562;28;20233;-70
2021/03/26 09:55:20;;;;;;;0.10;0.10;;;;;;;;;;5106791;28;20464;-72
2021/03/26 09:57:49;;;;;;;0.20;0.20;;;;;;;;;;5106396;28;20206;-72
2021/03/26 10:00:21;;;;;;;0.10;0.10;;;;;;;;;;5105003;28;20205;-71
2021/03/26 10:03:02;;;;;;;0.10;0.10;;;;;;;;;;5105838;28;20214;-70
2021/03/26 10:05:33;;;;;;;0.10;0.10;;;;;;;;;;5106780;28;20223;-69
2021/03/26 10:08:07;;;;;;;0.10;0.10;;;;;;;;;;5103398;28;20202;-74
2021/03/26 10:10:46;;;;;;;0.10;0.10;;;;;;;;;;5101359;28;20223;-73
2021/03/26 10:13:15;;;;;;;0.00;0.00;;;;;;;;;;5106105;28;20281;-74
2021/03/26 10:15:43;;;;;;;0.10;0.10;;;;;;;;;;5102745;28;20199;-70
2021/03/26 10:18:12;;;;;;;0.05;0.05;;;;;;;;;;5104298;28;20203;-71
2021/03/26 10:20:42;;;;;;;0.10;0.10;;;;;;;;;;5106088;28;20446;-74
2021/03/26 10:23:21;;;;;;;0.10;0.10;;;;;;;;;;5106153;28;20518;-69
2021/03/26 10:25:48;;;;;;;0.03;0.03;;;;;;;;;;5106132;28;20385;-72
2021/03/26 10:28:20;;;;;;;0.10;0.10;;;;;;;;;;5106098;28;20199;-74
2021/03/26 10:30:47;;;;;;;0.10;0.10;;;;;;;;;;5092869;28;20242;-72
2021/03/26 10:33:14;;;;;;;0.05;0.05;;;;;;;;;;5098893;28;20206;-73
2021/03/26 10:35:49;;;;;;;0.03;0.03;;;;;;;;;;5100937;28;20461;-72
2021/03/26 10:38:17;;;;;;;0.13;0.13;;;;;;;;;;5099361;28;20271;-74
2021/03/26 10:40:46;;;;;;;0.05;0.05;;;;;;;;;;5104666;28;20254;-73
2021/03/26 10:43:15;;;;;;;0.10;0.10;;;;;;;;;;5097908;28;20276;-73
2021/03/26 10:45:43;;;;;;;0.10;0.10;;;;;;;;;;5101955;28;20272;-72
2021/03/26 10:48:10;;;;;;;0.10;0.10;;;;;;;;;;5102370;28;20210;-71
2021/03/26 10:50:54;;;;;;;0.20;0.20;;;;;;;;;;5096110;28;20432;-70
2021/03/26 10:53:22;;;;;;;0.07;0.07;;;;;;;;;;5083326;28;20231;-73
2021/03/26 10:55:50;;;;;;;0.10;0.10;;;;;;;;;;5096194;28;20510;-72
2021/03/26 10:58:34;;;;;;;0.10;0.10;;;;;;;;;;5096870;28;20204;-74
2021/03/26 11:01:02;;;;;;;0.03;0.03;;;;;;;;;;5102466;28;20236;-71
2021/03/26 11:03:30;;;;;;;0.10;0.10;;;;;;;;;;5099047;28;20205;-73
2021/03/26 11:05:58;;;;;;;0.10;0.10;;;;;;;;;;5102363;28;20198;-74
2021/03/26 11:08:28;;;;;;;0.07;0.07;;;;;;;;;;5094997;28;20466;-73
2021/03/26 11:11:00;;;;;;;0.10;0.10;;;;;;;;;;5105821;28;20235;-73
2021/03/26 11:13:31;;;;;;;0.10;0.10;;;;;;;;;;5104144;28;20307;-75
2021/03/26 11:16:00;;;;;;;0.10;0.10;;;;;;;;;;5096717;28;20201;-76
2021/03/26 11:18:32;;;;;;;0.10;0.10;;;;;;;;;;5100025;28;20213;-74
2021/03/26 11:20:59;;;;;;;0.10;0.10;;;;;;;;;;5096507;28;21166;-73
2021/03/26 11:23:28;;;;;;;0.10;0.10;;;;;;;;;;5095510;28;20204;-68
2021/03/26 11:26:06;;;;;;;0.10;0.10;;;;;;;;;;5097668;28;20211;-68
2021/03/26 11:28:36;;;;;;;0.03;0.03;;;;;;;;;;5101029;28;20236;-68
2021/03/26 11:31:11;;;;;;;0.10;0.10;;;;;;;;;;5099387;28;20196;-68
2021/03/26 11:33:44;;;;;;;0.10;0.10;;;;;;;;;;5103350;28;20206;-69
2021/03/26 11:36:39;;;;;;;0.10;0.10;;;;;;;;;;5092985;28;20243;-68
2021/03/26 11:39:15;;;;;;;0.10;0.10;;;;;;;;;;5016564;28;20314;-70
2021/03/26 11:41:43;;;;;;;2.20;2.10;;;;;;;;;;5078983;28;20266;-69
2021/03/26 11:44:11;;;;;;;0.10;0.10;;;;;;;;;;5100642;28;20394;-68
2021/03/26 11:46:39;;;;;;;0.10;0.10;;;;;;;;;;5099058;28;20200;-69
2021/03/26 11:49:14;;;;;;;0.10;0.10;;;;;;;;;;5098385;28;20390;-69
2021/03/26 11:51:42;;;;;;;0.10;0.10;;;;;;;;;;5098570;28;20483;-68
2021/03/26 11:54:14;;;;;;;0.03;0.03;;;;;;;;;;5099396;28;20216;-64
2021/03/26 11:56:49;;;;;;;0.10;0.10;;;;;;;;;;5104712;28;20247;-68
2021/03/26 11:59:45;;;;;;;0.30;0.30;;;;;;;;;;5104224;28;20199;-69
2021/03/26 12:02:25;;;;;;;0.10;0.10;;;;;;;;;;5087157;28;20213;-69
2021/03/26 12:04:54;;;;;;;0.10;0.10;;;;;;;;;;5090104;28;20221;-68
2021/03/26 12:07:22;;;;;;;0.10;0.10;;;;;;;;;;5104716;28;20389;-71
2021/03/26 12:09:53;;;;;;;0.10;0.10;;;;;;;;;;5095073;28;20228;-69
2021/03/26 12:12:21;;;;;;;0.10;0.10;;;;;;;;;;5098859;28;20385;-70
2021/03/26 12:14:51;;;;;;;0.10;0.10;;;;;;;;;;5093581;28;20206;-68
2021/03/26 12:17:29;;;;;;;0.00;0.00;;;;;;;;;;5097961;28;20268;-68
2021/03/26 12:19:58;;;;;;;0.10;0.10;;;;;;;;;;5100171;28;20195;-70
2021/03/26 12:22:30;;;;;;;0.47;0.47;;;;;;;;;;5095164;28;20293;-69
2021/03/26 12:25:00;;;;;;;0.10;0.10;;;;;;;;;;5104013;28;20226;-67
2021/03/26 12:27:29;;;;;;;0.10;0.10;;;;;;;;;;5103874;28;20215;-69
2021/03/26 12:29:58;;;;;;;0.00;0.00;;;;;;;;;;5103762;28;20212;-68
2021/03/26 12:32:30;;;;;;;0.10;0.10;;;;;;;;;;5090056;28;20210;-68
2021/03/26 12:35:01;;;;;;;0.10;0.10;;;;;;;;;;5104201;28;20619;-68
2021/03/26 12:37:32;;;;;;;0.10;0.10;;;;;;;;;;5103514;28;20255;-69
2021/03/26 12:40:03;;;;;;;0.10;0.10;;;;;;;;;;5104058;28;20230;-69
2021/03/26 12:42:34;;;;;;;0.10;0.10;;;;;;;;;;5100127;28;20262;-67
2021/03/26 12:45:02;;;;;;;0.10;0.10;;;;;;;;;;5100930;28;20217;-68
2021/03/26 12:47:31;;;;;;;0.07;0.07;;;;;;;;;;5102371;28;20561;-68
2021/03/26 12:50:01;;;;;;;0.10;0.10;;;;;;;;;;5096913;28;20211;-68
2021/03/26 12:52:51;;;;;;;0.10;0.10;;;;;;;;;;5098013;28;20201;-67
2021/03/26 12:55:24;;;;;;;0.07;0.07;;;;;;;;;;5092748;28;20199;-68
2021/03/26 12:57:57;;;;;;;0.10;0.10;;;;;;;;;;5096510;28;20258;-68
2021/03/26 13:00:32;;;;;;;0.40;0.40;;;;;;;;;;5089370;28;20210;-67
2021/03/26 13:03:02;;;;;;;0.10;0.10;;;;;;;;;;5102062;28;20280;-67
2021/03/26 13:05:28;;;;;;;0.10;0.10;;;;;;;;;;5103217;28;20227;-68
2021/03/26 13:07:58;;;;;;;0.07;0.07;;;;;;;;;;5095327;28;20242;-68
2021/03/26 13:10:37;;;;;;;0.10;0.10;;;;;;;;;;5098809;28;20259;-68
2021/03/26 13:13:13;;;;;;;0.10;0.10;;;;;;;;;;5098965;28;20221;-70
2021/03/26 13:15:40;;;;;;;2.00;2.00;;;;;;;;;;5100232;28;20204;-68
2021/03/26 13:18:08;;;;;;;0.10;0.10;;;;;;;;;;5103142;28;20204;-70
2021/03/26 13:20:47;;;;;;;0.10;0.10;;;;;;;;;;5100922;28;20213;-68
2021/03/26 13:23:17;;;;;;;0.10;0.10;;;;;;;;;;5107941;28;20208;-68
2021/03/26 13:25:46;;;;;;;0.10;0.10;;;;;;;;;;5107076;28;20205;-69
2021/03/26 13:28:16;;;;;;;0.10;0.10;;;;;;;;;;5107407;28;20232;-68
2021/03/26 13:30:50;;;;;;;0.10;0.10;;;;;;;;;;5107115;28;20199;-68
2021/03/26 13:33:36;;;;;;;0.10;0.10;;;;;;;;;;5097790;28;20239;-69
2021/03/26 13:36:07;;;;;;;0.10;0.10;;;;;;;;;;5105370;28;20263;-68
2021/03/26 13:38:50;;;;;;;0.10;0.10;;;;;;;;;;5096708;28;20272;-69
2021/03/26 13:41:29;;;;;;;0.10;0.10;;;;;;;;;;5101493;28;20213;-69
2021/03/26 13:44:24;;;;;;;0.10;0.10;;;;;;;;;;5106614;28;20209;-68
2021/03/26 13:46:52;;;;;;;0.10;0.10;;;;;;;;;;5093093;28;20238;-69
2021/03/26 13:49:20;;;;;;;0.10;0.10;;;;;;;;;;5103692;28;20210;-71
2021/03/26 13:51:47;;;;;;;0.10;0.10;;;;;;;;;;5093521;28;20267;-68
2021/03/26 13:54:29;;;;;;;0.10;0.10;;;;;;;;;;5103257;28;20210;-69
2021/03/26 13:56:56;;;;;;;0.27;0.27;;;;;;;;;;5098631;28;20268;-68
2021/03/26 13:59:27;;;;;;;0.10;0.10;;;;;;;;;;5106401;28;20212;-71
2021/03/26 14:01:54;;;;;;;0.10;0.10;;;;;;;;;;5095940;28;20221;-70
2021/03/26 14:04:23;;;;;;;0.00;0.00;;;;;;;;;;5102777;28;20538;-70
2021/03/26 14:06:50;;;;;;;0.10;0.10;;;;;;;;;;5105236;28;20214;-73
2021/03/26 14:09:24;;;;;;;0.10;0.10;;;;;;;;;;5104556;28;20203;-72
2021/03/26 14:11:53;;;;;;;0.10;0.10;;;;;;;;;;5103940;28;20200;-69
2021/03/26 14:14:24;;;;;;;0.10;0.10;;;;;;;;;;5102391;28;20390;-69
2021/03/26 14:16:52;;;;;;;0.10;0.10;;;;;;;;;;5106441;28;20196;-70
2021/03/26 14:19:21;;;;;;;0.10;0.10;;;;;;;;;;5102950;28;20499;-69
2021/03/26 14:21:54;;;;;;;0.00;0.00;;;;;;;;;;5099974;28;20220;-70
2021/03/26 14:24:29;;;;;;;0.10;0.10;;;;;;;;;;5097316;28;20215;-75
2021/03/26 14:27:07;;;;;;;0.10;0.10;;;;;;;;;;5106462;28;20200;-71
2021/03/26 14:29:42;;;;;;;0.10;0.10;;;;;;;;;;5099968;28;20369;-73
2021/03/26 14:32:10;;;;;;;0.10;0.10;;;;;;;;;;5091806;28;20225;-73
2021/03/26 14:34:40;;;;;;;0.07;0.07;;;;;;;;;;5106302;28;20385;-72
2021/03/26 14:37:12;;;;;;;0.00;0.00;;;;;;;;;;5105860;28;20223;-72
2021/03/26 14:39:39;;;;;;;0.10;0.10;;;;;;;;;;5105976;28;20239;-73
2021/03/26 14:42:06;;;;;;;0.10;0.10;;;;;;;;;;5092957;28;20226;-74
2021/03/26 14:44:33;;;;;;;0.10;0.10;;;;;;;;;;5099215;28;20246;-72
2021/03/26 14:47:01;;;;;;;0.00;0.00;;;;;;;;;;5105301;28;20219;-73
2021/03/26 14:49:34;;;;;;;0.10;0.10;;;;;;;;;;5104453;28;20384;-72
2021/03/26 14:52:02;;;;;;;0.00;0.00;;;;;;;;;;5098276;28;20508;-72
2021/03/26 14:54:31;;;;;;;0.00;0.00;;;;;;;;;;5100559;28;20267;-72
2021/03/26 14:57:03;;;;;;;0.10;0.10;;;;;;;;;;5102330;28;20518;-74
2021/03/26 14:59:37;;;;;;;0.03;0.03;;;;;;;;;;5091442;28;20489;-67
2021/03/26 15:02:05;;;;;;;0.07;0.07;;;;;;;;;;5089558;28;20217;-68
2021/03/26 15:04:33;;;;;;;0.10;0.10;;;;;;;;;;5091827;28;20250;-68
2021/03/26 15:07:01;;;;;;;0.10;0.10;;;;;;;;;;5101855;28;20207;-67
2021/03/26 15:09:33;;;;;;;0.10;0.10;;;;;;;;;;5092233;28;20235;-69